Mercs Mahaweli — 4RBQ — position and weather

sailwx.info

Track history (hours):
 
Tides and Currents Weather Stations Pressure Air Temp Water Temp Dewpoint Dewpoint Depression Visibility Wind Speed Wind Dir Waves Ship Positions

Mercs Mahaweli

Last reported at 2017-Oct-28 17:04 UTC. Time now 2017-Nov-21 19:10 UTC.
Position N 19°56' W 020°06'.
Warning: this ship's position is 24 days out of date.

Length 140 m; draft 9 m.

Type: Cargo ship. MMSI: 417222330.

Date/timePositionNaut miles runAvg speedWind from/ knotsBaromVisibWave heightAir tempDewpointWater temp
2017-Oct-28 17:04N 19°56' W 020°06'115.2
2017-Oct-28 16:59N 19°57' W 020°05'915.1
2017-Oct-28 16:22N 20°05' W 020°00'715.3
2017-Oct-28 15:53N 20°11' W 019°57'615.0
2017-Oct-28 15:28N 20°17' W 019°53'715.0
2017-Oct-28 15:00N 20°23' W 019°50'815.3
2017-Oct-28 14:30N 20°29' W 019°45'49313.6
2017-Oct-27 02:17N 27°39' W 015°19'413.8
2017-Oct-27 02:00N 27°42' W 015°17'713.6
2017-Oct-27 01:30N 27°49' W 015°15'713.4
2017-Oct-27 01:00N 27°55' W 015°13'612.8
2017-Oct-27 00:30N 28°02' W 015°14'612.9
2017-Oct-27 00:00N 28°06' W 015°19'5 7.5
2017-Oct-26 23:22N 28°08' W 015°24'0 0.1
2017-Oct-26 22:49N 28°09' W 015°24'0 0.0
2017-Oct-26 22:22N 28°09' W 015°24'0 0.1
2017-Oct-26 21:52N 28°09' W 015°24'0 0.0
2017-Oct-26 21:22N 28°09' W 015°24'0 0.0
2017-Oct-26 20:52N 28°09' W 015°24'0 0.1
2017-Oct-26 20:22N 28°09' W 015°24'0 0.0
2017-Oct-26 19:55N 28°09' W 015°24'0 0.0
2017-Oct-26 19:25N 28°09' W 015°24'0 0.0
2017-Oct-26 18:55N 28°09' W 015°24'0 0.0
2017-Oct-26 18:25N 28°09' W 015°24'0 0.2
2017-Oct-26 17:55N 28°08' W 015°24'0 0.1
2017-Oct-26 17:28N 28°08' W 015°24'0 0.0
2017-Oct-26 16:58N 28°08' W 015°24'0 0.1
2017-Oct-26 16:28N 28°09' W 015°24'0 0.0
2017-Oct-26 15:55N 28°09' W 015°24'0 0.1
2017-Oct-26 15:28N 28°09' W 015°24'0 0.0
2017-Oct-26 14:58N 28°09' W 015°24'0 0.0
2017-Oct-26 14:28N 28°09' W 015°24'0 0.0
2017-Oct-26 13:58N 28°09' W 015°24'0 0.0
2017-Oct-26 13:28N 28°09' W 015°24'0 0.0
2017-Oct-26 12:58N 28°09' W 015°24'0 0.0
2017-Oct-26 12:28N 28°09' W 015°24'0 0.1
2017-Oct-26 11:47N 28°09' W 015°24'0 0.4
2017-Oct-26 11:30N 28°08' W 015°24'2 4.4
2017-Oct-26 11:01N 28°10' W 015°22'0 0.6
2017-Oct-26 10:30N 28°10' W 015°21'1 1.1
2017-Oct-26 10:00N 28°10' W 015°21'3 6.1
2017-Oct-26 09:30N 28°13' W 015°20'4 7.2
2017-Oct-26 09:00N 28°17' W 015°18'713.6
2017-Oct-26 08:30N 28°23' W 015°16'713.8
2017-Oct-26 08:00N 28°29' W 015°12'714.0
2017-Oct-26 07:30N 28°35' W 015°09'714.2
2017-Oct-26 07:00N 28°42' W 015°05'714.4
2017-Oct-26 06:30N 28°48' W 015°01'714.4
2017-Oct-26 06:00N 28°54' W 014°57'714.0
2017-Oct-26 05:30N 29°01' W 014°54'712.9
2017-Oct-26 04:56N 29°07' W 014°51'512.4
2017-Oct-26 04:30N 29°12' W 014°48'612.4
2017-Oct-26 04:00N 29°18' W 014°45'612.5
2017-Oct-26 03:30N 29°23' W 014°42'712.8
2017-Oct-26 02:59N 29°30' W 014°38'1512.7
2017-Oct-26 01:48N 29°43' W 014°31'412.6
2017-Oct-26 01:30N 29°47' W 014°30'612.5
2017-Oct-26 01:00N 29°52' W 014°27'612.6
2017-Oct-26 00:30N 29°58' W 014°23'612.7
2017-Oct-26 00:00N 30°04' W 014°20'612.7
2017-Oct-25 23:30N 30°09' W 014°17'612.6
2017-Oct-25 23:00N 30°15' W 014°14'612.6
2017-Oct-25 22:30N 30°21' W 014°11'612.4
2017-Oct-25 22:00N 30°26' W 014°07'712.3
2017-Oct-25 21:23N 30°33' W 014°03'411.8
2017-Oct-25 21:00N 30°37' W 014°01'712.2
2017-Oct-25 20:28N 30°43' W 013°58'1712.3
2017-Oct-25 19:07N 30°58' W 013°50'1312.3
2017-Oct-25 18:06N 31°10' W 013°44'1712.2
2017-Oct-25 16:44N 31°25' W 013°35'612.3
2017-Oct-25 16:12N 31°31' W 013°33'212.5
2017-Oct-25 16:00N 31°33' W 013°31'612.4
2017-Oct-25 15:30N 31°38' W 013°28'612.5
2017-Oct-25 15:00N 31°44' W 013°24'612.4
2017-Oct-25 14:30N 31°50' W 013°21'612.4
2017-Oct-25 14:00N 31°55' W 013°18'612.6
2017-Oct-25 13:30N 32°01' W 013°15'613.0
2017-Oct-25 13:00N 32°07' W 013°12'613.0
2017-Oct-25 12:30N 32°13' W 013°09'612.9
2017-Oct-25 12:00N 32°19' W 013°06'812.7
2017-Oct-25 11:21N 32°26' W 013°02'412.6
2017-Oct-25 11:00N 32°30' W 012°59'612.5
2017-Oct-25 10:30N 32°36' W 012°56'2612.6
2017-Oct-25 08:26N 32°59' W 012°43'29212.6
2017-Oct-24 09:11N 37°23' W 010°09'211.7
2017-Oct-24 09:00N 37°25' W 010°08'611.8
2017-Oct-24 08:30N 37°30' W 010°05'612.3
2017-Oct-24 08:00N 37°36' W 010°02'612.4
2017-Oct-24 07:30N 37°42' W 009°59'612.4
2017-Oct-24 07:01N 37°47' W 009°56'612.3
2017-Oct-24 06:30N 37°53' W 009°52'612.5
2017-Oct-24 06:01N 37°58' W 009°49'612.4
2017-Oct-24 05:31N 38°04' W 009°45'612.0
2017-Oct-24 05:00N 38°09' W 009°41'611.9
2017-Oct-24 04:31N 38°15' W 009°38'612.4
2017-Oct-24 04:00N 38°20' W 009°35'612.6
2017-Oct-24 03:30N 38°26' W 009°32'612.4
2017-Oct-24 03:01N 38°32' W 009°28'612.6
2017-Oct-24 02:30N 38°37' W 009°23'510.4
2017-Oct-24 02:01N 38°40' W 009°19'2 4.5
2017-Oct-24 01:30N 38°41' W 009°16'2 4.7
2017-Oct-24 01:01N 38°41' W 009°13'510.3
2017-Oct-24 00:31N 38°43' W 009°07'1 1.3
2017-Oct-23 23:59N 38°44' W 009°06'0 0.0
2017-Oct-23 23:29N 38°44' W 009°06'0 0.0
2017-Oct-23 22:59N 38°44' W 009°06'0 0.0
2017-Oct-23 22:29N 38°44' W 009°06'0 0.0
2017-Oct-23 21:59N 38°44' W 009°06'0 0.0
2017-Oct-23 21:29N 38°44' W 009°06'0 0.0
2017-Oct-23 20:56N 38°44' W 009°06'0 0.0
2017-Oct-23 20:29N 38°44' W 009°06'0 0.0
2017-Oct-23 19:53N 38°44' W 009°06'0 0.0
2017-Oct-23 19:26N 38°44' W 009°06'0 0.0
2017-Oct-23 18:56N 38°44' W 009°06'0 0.0
2017-Oct-23 18:17N 38°44' W 009°06'0 0.0
2017-Oct-23 17:56N 38°44' W 009°06'0 0.0
2017-Oct-23 17:26N 38°44' W 009°06'0 0.0
2017-Oct-23 13:53N 38°44' W 009°06'0 0.0
2017-Oct-23 13:20N 38°44' W 009°06'0 0.0
2017-Oct-23 12:53N 38°44' W 009°06'0 0.0
2017-Oct-23 12:26N 38°44' W 009°06'0 0.0
2017-Oct-23 11:59N 38°44' W 009°06'0 0.0
2017-Oct-23 11:29N 38°44' W 009°06'0 0.0
2017-Oct-23 10:50N 38°44' W 009°06'0 0.0
2017-Oct-23 10:23N 38°44' W 009°06'0 0.0
2017-Oct-23 09:59N 38°44' W 009°06'0 0.0
2017-Oct-23 09:29N 38°44' W 009°06'0 0.0
2017-Oct-23 08:59N 38°44' W 009°06'0 0.0
2017-Oct-23 08:29N 38°44' W 009°06'0 0.0
2017-Oct-23 07:59N 38°44' W 009°06'0 0.0
2017-Oct-23 07:29N 38°44' W 009°06'0 0.0
2017-Oct-23 06:59N 38°44' W 009°06'0 0.0
2017-Oct-23 06:29N 38°44' W 009°06'0 0.0
2017-Oct-23 05:59N 38°44' W 009°06'0 0.0
2017-Oct-23 05:29N 38°44' W 009°06'0 0.0
2017-Oct-23 04:59N 38°44' W 009°06'0 0.0
2017-Oct-23 04:29N 38°44' W 009°06'0 0.0
2017-Oct-23 03:53N 38°44' W 009°06'0 0.0
2017-Oct-23 03:29N 38°44' W 009°06'0 0.0
2017-Oct-23 02:59N 38°44' W 009°06'0 0.0
2017-Oct-23 02:29N 38°44' W 009°06'0 0.0
2017-Oct-23 01:59N 38°44' W 009°06'0 0.0
2017-Oct-23 01:29N 38°44' W 009°06'0 0.0
2017-Oct-23 00:59N 38°44' W 009°06'0 0.0
2017-Oct-23 00:29N 38°44' W 009°06'0 0.0
2017-Oct-22 23:59N 38°44' W 009°06'0 0.0
2017-Oct-22 23:29N 38°44' W 009°06'0 0.0
2017-Oct-22 22:59N 38°44' W 009°06'0 0.0
2017-Oct-22 22:29N 38°44' W 009°06'0 0.0
2017-Oct-22 21:56N 38°44' W 009°06'0 0.0
2017-Oct-22 21:26N 38°44' W 009°06'0 0.0
2017-Oct-22 20:38N 38°44' W 009°06'0 0.0
2017-Oct-22 20:29N 38°44' W 009°06'0 0.0
2017-Oct-22 19:59N 38°44' W 009°06'0 0.0
2017-Oct-22 19:26N 38°44' W 009°06'0 0.0
2017-Oct-22 18:59N 38°44' W 009°06'0 0.0
2017-Oct-22 18:29N 38°44' W 009°06'0 0.0
2017-Oct-22 17:59N 38°44' W 009°06'0 0.0
2017-Oct-22 17:29N 38°44' W 009°06'0 0.0
2017-Oct-22 16:56N 38°44' W 009°06'0 0.0
2017-Oct-22 16:29N 38°44' W 009°06'0 0.0
2017-Oct-22 15:59N 38°44' W 009°06'0 0.0
2017-Oct-22 15:29N 38°44' W 009°06'0 0.0
2017-Oct-22 14:59N 38°44' W 009°06'0 0.5
2017-Oct-22 14:30N 38°43' W 009°06'5 9.8
2017-Oct-22 14:00N 38°41' W 009°12'4 8.2
2017-Oct-22 13:30N 38°41' W 009°17'510.7
2017-Oct-22 13:00N 38°38' W 009°22'611.2
2017-Oct-22 12:30N 38°34' W 009°27'510.1
2017-Oct-22 12:01N 38°30' W 009°32'1 2.0
2017-Oct-22 11:30N 38°31' W 009°31'5 9.6
2017-Oct-22 11:00N 38°28' W 009°35'510.1
2017-Oct-22 10:30N 38°25' W 009°41'5 9.2
2017-Oct-22 10:00N 38°25' W 009°47'611.7
2017-Oct-22 09:30N 38°25' W 009°54'611.4
2017-Oct-22 09:00N 38°25' W 010°02'1110.4
2017-Oct-22 07:54N 38°34' W 010°10'512.5
2017-Oct-22 07:30N 38°39' W 010°11'712.6
2017-Oct-22 06:59N 38°46' W 010°12'812.4
2017-Oct-22 06:20N 38°54' W 010°12'412.6
2017-Oct-22 06:00N 38°58' W 010°12'713.1
2017-Oct-22 05:30N 39°04' W 010°11'13911.6
2017-Oct-21 17:33N 41°10' W 008°53'1 9.6
2017-Oct-21 17:28N 41°10' W 008°52'4 9.7
2017-Oct-21 17:01N 41°12' W 008°47'4 7.1
2017-Oct-21 16:31N 41°11' W 008°42'1 2.3
2017-Oct-21 15:58N 41°12' W 008°41'0 0.0
2017-Oct-21 15:28N 41°12' W 008°41'0 0.0
2017-Oct-21 14:58N 41°12' W 008°41'0 0.0
2017-Oct-21 14:28N 41°12' W 008°41'0 0.0
2017-Oct-21 13:28N 41°12' W 008°41'0 0.0
2017-Oct-21 12:58N 41°12' W 008°41'0 0.0
2017-Oct-21 12:28N 41°12' W 008°41'0 0.0
2017-Oct-21 11:58N 41°12' W 008°41'0 0.0
2017-Oct-21 11:28N 41°12' W 008°41'0 0.0
2017-Oct-21 10:58N 41°12' W 008°41'0 0.0
2017-Oct-21 10:28N 41°12' W 008°41'0 0.0
2017-Oct-21 09:58N 41°12' W 008°41'0 0.0
2017-Oct-21 09:28N 41°12' W 008°41'0 0.0
2017-Oct-21 08:58N 41°12' W 008°41'0 0.0
2017-Oct-21 08:28N 41°12' W 008°41'0 0.0
2017-Oct-21 07:58N 41°12' W 008°41'0 0.0
2017-Oct-21 07:28N 41°12' W 008°41'0 0.0
2017-Oct-21 06:58N 41°12' W 008°41'0 0.0
2017-Oct-21 06:25N 41°12' W 008°41'0 0.0
2017-Oct-21 05:58N 41°12' W 008°41'0 0.0
2017-Oct-21 05:28N 41°12' W 008°41'0 0.0
2017-Oct-21 04:58N 41°12' W 008°41'0 0.0
2017-Oct-21 04:28N 41°12' W 008°41'0 0.0
2017-Oct-21 03:58N 41°12' W 008°41'0 0.0
2017-Oct-21 03:28N 41°12' W 008°41'0 0.0
2017-Oct-21 02:58N 41°12' W 008°41'0 0.0
2017-Oct-21 02:28N 41°12' W 008°41'0 0.0
2017-Oct-21 01:58N 41°12' W 008°41'0 0.0
2017-Oct-21 01:28N 41°12' W 008°41'0 0.0
2017-Oct-21 00:58N 41°12' W 008°41'0 0.0
2017-Oct-21 00:28N 41°12' W 008°41'0 0.0
2017-Oct-20 23:58N 41°12' W 008°41'0 0.0
2017-Oct-20 23:28N 41°12' W 008°41'0 0.0
2017-Oct-20 22:58N 41°12' W 008°41'0 0.0
2017-Oct-20 22:25N 41°12' W 008°41'0 0.0
2017-Oct-20 21:55N 41°12' W 008°41'0 0.0
2017-Oct-20 21:28N 41°12' W 008°41'0 0.0
2017-Oct-20 20:52N 41°12' W 008°41'0 0.0
2017-Oct-20 20:28N 41°12' W 008°41'0 0.0
2017-Oct-20 19:58N 41°12' W 008°41'0 0.0
2017-Oct-20 19:28N 41°12' W 008°41'0 0.0
2017-Oct-20 18:58N 41°12' W 008°41'0 0.0
2017-Oct-20 18:25N 41°12' W 008°41'0 0.0
2017-Oct-20 17:58N 41°12' W 008°41'0 0.0
2017-Oct-20 17:25N 41°12' W 008°41'0 0.0
2017-Oct-20 16:58N 41°12' W 008°41'0 0.0
2017-Oct-20 16:28N 41°12' W 008°41'0 0.0
2017-Oct-20 15:58N 41°12' W 008°41'0 0.0
2017-Oct-20 15:28N 41°12' W 008°41'0 0.0
2017-Oct-20 14:58N 41°12' W 008°41'0 0.0
2017-Oct-20 14:28N 41°12' W 008°41'0 0.0
2017-Oct-20 13:25N 41°12' W 008°41'0 0.0
2017-Oct-20 12:58N 41°12' W 008°41'0 0.0
2017-Oct-20 12:28N 41°12' W 008°41'0 0.0
2017-Oct-20 11:58N 41°12' W 008°41'0 0.4
2017-Oct-20 11:31N 41°11' W 008°42'1 1.0
2017-Oct-20 10:59N 41°11' W 008°42'0 0.0
2017-Oct-20 10:29N 41°11' W 008°42'0 0.0
2017-Oct-20 09:59N 41°11' W 008°42'0 0.0
2017-Oct-20 09:29N 41°11' W 008°42'0 0.0
2017-Oct-20 08:59N 41°11' W 008°42'0 0.0
2017-Oct-20 08:29N 41°11' W 008°42'0 0.0
2017-Oct-20 07:59N 41°11' W 008°42'0 0.0
2017-Oct-20 07:29N 41°11' W 008°42'0 0.0
2017-Oct-20 06:59N 41°11' W 008°42'0 0.0
2017-Oct-20 06:29N 41°11' W 008°42'0 0.0
2017-Oct-20 05:59N 41°11' W 008°42'0 0.0
2017-Oct-20 05:29N 41°11' W 008°42'0 0.0
2017-Oct-20 04:59N 41°11' W 008°42'0 0.0
2017-Oct-20 04:29N 41°11' W 008°42'0 0.0
2017-Oct-20 03:59N 41°11' W 008°42'0 0.0
2017-Oct-20 03:29N 41°11' W 008°42'0 0.0
2017-Oct-20 02:59N 41°11' W 008°42'0 0.0
2017-Oct-20 02:29N 41°11' W 008°42'0 0.0
2017-Oct-20 01:59N 41°11' W 008°42'0 0.0
2017-Oct-20 01:29N 41°11' W 008°42'0 0.0
2017-Oct-20 00:59N 41°11' W 008°42'0 0.0
2017-Oct-20 00:29N 41°11' W 008°42'0 0.0
2017-Oct-19 23:59N 41°11' W 008°42'0 0.0
2017-Oct-19 23:29N 41°11' W 008°42'0 0.0
2017-Oct-19 22:59N 41°11' W 008°42'0 0.0
2017-Oct-19 22:29N 41°11' W 008°42'0 0.0
2017-Oct-19 21:59N 41°11' W 008°42'0 0.0
2017-Oct-19 21:29N 41°11' W 008°42'0 0.0
2017-Oct-19 20:59N 41°11' W 008°42'0 0.0
2017-Oct-19 20:29N 41°11' W 008°42'0 0.0
2017-Oct-19 19:56N 41°11' W 008°42'0 0.0
2017-Oct-19 19:29N 41°11' W 008°42'0 0.0
2017-Oct-19 18:59N 41°11' W 008°42'0 0.0
2017-Oct-19 18:29N 41°11' W 008°42'1 2.8
2017-Oct-19 18:00N 41°10' W 008°42'4 8.2
2017-Oct-19 17:30N 41°09' W 008°48'  
Track history (hours):
 
Tides and Currents Weather Stations Pressure Air Temp Water Temp Dewpoint Dewpoint Depression Visibility Wind Speed Wind Dir Waves Ship Positions

Mercs Mahaweli

Last reported at 2017-Oct-28 17:04 UTC. Time now 2017-Nov-21 19:10 UTC.
Position N 19°56' W 020°06'.
Warning: this ship's position is 24 days out of date.

Length 140 m; draft 9 m.

Type: Cargo ship. MMSI: 417222330.

Date/timePositionNaut miles runAvg speedWind from/ knotsBaromVisibWave heightAir tempDewpointWater temp
2017-Oct-28 17:04N 19°56' W 020°06'115.2
2017-Oct-28 16:59N 19°57' W 020°05'915.1
2017-Oct-28 16:22N 20°05' W 020°00'715.3
2017-Oct-28 15:53N 20°11' W 019°57'615.0
2017-Oct-28 15:28N 20°17' W 019°53'715.0
2017-Oct-28 15:00N 20°23' W 019°50'815.3
2017-Oct-28 14:30N 20°29' W 019°45'49313.6
2017-Oct-27 02:17N 27°39' W 015°19'413.8
2017-Oct-27 02:00N 27°42' W 015°17'713.6
2017-Oct-27 01:30N 27°49' W 015°15'713.4
2017-Oct-27 01:00N 27°55' W 015°13'612.8
2017-Oct-27 00:30N 28°02' W 015°14'612.9
2017-Oct-27 00:00N 28°06' W 015°19'5 7.5
2017-Oct-26 23:22N 28°08' W 015°24'0 0.1
2017-Oct-26 22:49N 28°09' W 015°24'0 0.0
2017-Oct-26 22:22N 28°09' W 015°24'0 0.1
2017-Oct-26 21:52N 28°09' W 015°24'0 0.0
2017-Oct-26 21:22N 28°09' W 015°24'0 0.0
2017-Oct-26 20:52N 28°09' W 015°24'0 0.1
2017-Oct-26 20:22N 28°09' W 015°24'0 0.0
2017-Oct-26 19:55N 28°09' W 015°24'0 0.0
2017-Oct-26 19:25N 28°09' W 015°24'0 0.0
2017-Oct-26 18:55N 28°09' W 015°24'0 0.0
2017-Oct-26 18:25N 28°09' W 015°24'0 0.2
2017-Oct-26 17:55N 28°08' W 015°24'0 0.1
2017-Oct-26 17:28N 28°08' W 015°24'0 0.0
2017-Oct-26 16:58N 28°08' W 015°24'0 0.1
2017-Oct-26 16:28N 28°09' W 015°24'0 0.0
2017-Oct-26 15:55N 28°09' W 015°24'0 0.1
2017-Oct-26 15:28N 28°09' W 015°24'0 0.0
2017-Oct-26 14:58N 28°09' W 015°24'0 0.0
2017-Oct-26 14:28N 28°09' W 015°24'0 0.0
2017-Oct-26 13:58N 28°09' W 015°24'0 0.0
2017-Oct-26 13:28N 28°09' W 015°24'0 0.0
2017-Oct-26 12:58N 28°09' W 015°24'0 0.0
2017-Oct-26 12:28N 28°09' W 015°24'0 0.1
2017-Oct-26 11:47N 28°09' W 015°24'0 0.4
2017-Oct-26 11:30N 28°08' W 015°24'2 4.4
2017-Oct-26 11:01N 28°10' W 015°22'0 0.6
2017-Oct-26 10:30N 28°10' W 015°21'1 1.1
2017-Oct-26 10:00N 28°10' W 015°21'3 6.1
2017-Oct-26 09:30N 28°13' W 015°20'4 7.2
2017-Oct-26 09:00N 28°17' W 015°18'713.6
2017-Oct-26 08:30N 28°23' W 015°16'713.8
2017-Oct-26 08:00N 28°29' W 015°12'714.0
2017-Oct-26 07:30N 28°35' W 015°09'714.2
2017-Oct-26 07:00N 28°42' W 015°05'714.4
2017-Oct-26 06:30N 28°48' W 015°01'714.4
2017-Oct-26 06:00N 28°54' W 014°57'714.0
2017-Oct-26 05:30N 29°01' W 014°54'712.9
2017-Oct-26 04:56N 29°07' W 014°51'512.4
2017-Oct-26 04:30N 29°12' W 014°48'612.4
2017-Oct-26 04:00N 29°18' W 014°45'612.5
2017-Oct-26 03:30N 29°23' W 014°42'712.8
2017-Oct-26 02:59N 29°30' W 014°38'1512.7
2017-Oct-26 01:48N 29°43' W 014°31'412.6
2017-Oct-26 01:30N 29°47' W 014°30'612.5
2017-Oct-26 01:00N 29°52' W 014°27'612.6
2017-Oct-26 00:30N 29°58' W 014°23'612.7
2017-Oct-26 00:00N 30°04' W 014°20'612.7
2017-Oct-25 23:30N 30°09' W 014°17'612.6
2017-Oct-25 23:00N 30°15' W 014°14'612.6
2017-Oct-25 22:30N 30°21' W 014°11'612.4
2017-Oct-25 22:00N 30°26' W 014°07'712.3
2017-Oct-25 21:23N 30°33' W 014°03'411.8
2017-Oct-25 21:00N 30°37' W 014°01'712.2
2017-Oct-25 20:28N 30°43' W 013°58'1712.3
2017-Oct-25 19:07N 30°58' W 013°50'1312.3
2017-Oct-25 18:06N 31°10' W 013°44'1712.2
2017-Oct-25 16:44N 31°25' W 013°35'612.3
2017-Oct-25 16:12N 31°31' W 013°33'212.5
2017-Oct-25 16:00N 31°33' W 013°31'612.4
2017-Oct-25 15:30N 31°38' W 013°28'612.5
2017-Oct-25 15:00N 31°44' W 013°24'612.4
2017-Oct-25 14:30N 31°50' W 013°21'612.4
2017-Oct-25 14:00N 31°55' W 013°18'612.6
2017-Oct-25 13:30N 32°01' W 013°15'613.0
2017-Oct-25 13:00N 32°07' W 013°12'613.0
2017-Oct-25 12:30N 32°13' W 013°09'612.9
2017-Oct-25 12:00N 32°19' W 013°06'812.7
2017-Oct-25 11:21N 32°26' W 013°02'412.6
2017-Oct-25 11:00N 32°30' W 012°59'612.5
2017-Oct-25 10:30N 32°36' W 012°56'2612.6
2017-Oct-25 08:26N 32°59' W 012°43'29212.6
2017-Oct-24 09:11N 37°23' W 010°09'211.7
2017-Oct-24 09:00N 37°25' W 010°08'611.8
2017-Oct-24 08:30N 37°30' W 010°05'612.3
2017-Oct-24 08:00N 37°36' W 010°02'612.4
2017-Oct-24 07:30N 37°42' W 009°59'612.4
2017-Oct-24 07:01N 37°47' W 009°56'612.3
2017-Oct-24 06:30N 37°53' W 009°52'612.5
2017-Oct-24 06:01N 37°58' W 009°49'612.4
2017-Oct-24 05:31N 38°04' W 009°45'612.0
2017-Oct-24 05:00N 38°09' W 009°41'611.9
2017-Oct-24 04:31N 38°15' W 009°38'612.4
2017-Oct-24 04:00N 38°20' W 009°35'612.6
2017-Oct-24 03:30N 38°26' W 009°32'612.4
2017-Oct-24 03:01N 38°32' W 009°28'612.6
2017-Oct-24 02:30N 38°37' W 009°23'510.4
2017-Oct-24 02:01N 38°40' W 009°19'2 4.5
2017-Oct-24 01:30N 38°41' W 009°16'2 4.7
2017-Oct-24 01:01N 38°41' W 009°13'510.3
2017-Oct-24 00:31N 38°43' W 009°07'1 1.3
2017-Oct-23 23:59N 38°44' W 009°06'0 0.0
2017-Oct-23 23:29N 38°44' W 009°06'0 0.0
2017-Oct-23 22:59N 38°44' W 009°06'0 0.0
2017-Oct-23 22:29N 38°44' W 009°06'0 0.0
2017-Oct-23 21:59N 38°44' W 009°06'0 0.0
2017-Oct-23 21:29N 38°44' W 009°06'0 0.0
2017-Oct-23 20:56N 38°44' W 009°06'0 0.0
2017-Oct-23 20:29N 38°44' W 009°06'0 0.0
2017-Oct-23 19:53N 38°44' W 009°06'0 0.0
2017-Oct-23 19:26N 38°44' W 009°06'0 0.0
2017-Oct-23 18:56N 38°44' W 009°06'0 0.0
2017-Oct-23 18:17N 38°44' W 009°06'0 0.0
2017-Oct-23 17:56N 38°44' W 009°06'0 0.0
2017-Oct-23 17:26N 38°44' W 009°06'0 0.0
2017-Oct-23 13:53N 38°44' W 009°06'0 0.0
2017-Oct-23 13:20N 38°44' W 009°06'0 0.0
2017-Oct-23 12:53N 38°44' W 009°06'0 0.0
2017-Oct-23 12:26N 38°44' W 009°06'0 0.0
2017-Oct-23 11:59N 38°44' W 009°06'0 0.0
2017-Oct-23 11:29N 38°44' W 009°06'0 0.0
2017-Oct-23 10:50N 38°44' W 009°06'0 0.0
2017-Oct-23 10:23N 38°44' W 009°06'0 0.0
2017-Oct-23 09:59N 38°44' W 009°06'0 0.0
2017-Oct-23 09:29N 38°44' W 009°06'0 0.0
2017-Oct-23 08:59N 38°44' W 009°06'0 0.0
2017-Oct-23 08:29N 38°44' W 009°06'0 0.0
2017-Oct-23 07:59N 38°44' W 009°06'0 0.0
2017-Oct-23 07:29N 38°44' W 009°06'0 0.0
2017-Oct-23 06:59N 38°44' W 009°06'0 0.0
2017-Oct-23 06:29N 38°44' W 009°06'0 0.0
2017-Oct-23 05:59N 38°44' W 009°06'0 0.0
2017-Oct-23 05:29N 38°44' W 009°06'0 0.0
2017-Oct-23 04:59N 38°44' W 009°06'0 0.0
2017-Oct-23 04:29N 38°44' W 009°06'0 0.0
2017-Oct-23 03:53N 38°44' W 009°06'0 0.0
2017-Oct-23 03:29N 38°44' W 009°06'0 0.0
2017-Oct-23 02:59N 38°44' W 009°06'0 0.0
2017-Oct-23 02:29N 38°44' W 009°06'0 0.0
2017-Oct-23 01:59N 38°44' W 009°06'0 0.0
2017-Oct-23 01:29N 38°44' W 009°06'0 0.0
2017-Oct-23 00:59N 38°44' W 009°06'0 0.0
2017-Oct-23 00:29N 38°44' W 009°06'0 0.0
2017-Oct-22 23:59N 38°44' W 009°06'0 0.0
2017-Oct-22 23:29N 38°44' W 009°06'0 0.0
2017-Oct-22 22:59N 38°44' W 009°06'0 0.0
2017-Oct-22 22:29N 38°44' W 009°06'0 0.0
2017-Oct-22 21:56N 38°44' W 009°06'0 0.0
2017-Oct-22 21:26N 38°44' W 009°06'0 0.0
2017-Oct-22 20:38N 38°44' W 009°06'0 0.0
2017-Oct-22 20:29N 38°44' W 009°06'0 0.0
2017-Oct-22 19:59N 38°44' W 009°06'0 0.0
2017-Oct-22 19:26N 38°44' W 009°06'0 0.0
2017-Oct-22 18:59N 38°44' W 009°06'0 0.0
2017-Oct-22 18:29N 38°44' W 009°06'0 0.0
2017-Oct-22 17:59N 38°44' W 009°06'0 0.0
2017-Oct-22 17:29N 38°44' W 009°06'0 0.0
2017-Oct-22 16:56N 38°44' W 009°06'0 0.0
2017-Oct-22 16:29N 38°44' W 009°06'0 0.0
2017-Oct-22 15:59N 38°44' W 009°06'0 0.0
2017-Oct-22 15:29N 38°44' W 009°06'0 0.0
2017-Oct-22 14:59N 38°44' W 009°06'0 0.5
2017-Oct-22 14:30N 38°43' W 009°06'5 9.8
2017-Oct-22 14:00N 38°41' W 009°12'4 8.2
2017-Oct-22 13:30N 38°41' W 009°17'510.7
2017-Oct-22 13:00N 38°38' W 009°22'611.2
2017-Oct-22 12:30N 38°34' W 009°27'510.1
2017-Oct-22 12:01N 38°30' W 009°32'1 2.0
2017-Oct-22 11:30N 38°31' W 009°31'5 9.6
2017-Oct-22 11:00N 38°28' W 009°35'510.1
2017-Oct-22 10:30N 38°25' W 009°41'5 9.2
2017-Oct-22 10:00N 38°25' W 009°47'611.7
2017-Oct-22 09:30N 38°25' W 009°54'611.4
2017-Oct-22 09:00N 38°25' W 010°02'1110.4
2017-Oct-22 07:54N 38°34' W 010°10'512.5
2017-Oct-22 07:30N 38°39' W 010°11'712.6
2017-Oct-22 06:59N 38°46' W 010°12'812.4
2017-Oct-22 06:20N 38°54' W 010°12'412.6
2017-Oct-22 06:00N 38°58' W 010°12'713.1
2017-Oct-22 05:30N 39°04' W 010°11'13911.6
2017-Oct-21 17:33N 41°10' W 008°53'1 9.6
2017-Oct-21 17:28N 41°10' W 008°52'4 9.7
2017-Oct-21 17:01N 41°12' W 008°47'4 7.1
2017-Oct-21 16:31N 41°11' W 008°42'1 2.3
2017-Oct-21 15:58N 41°12' W 008°41'0 0.0
2017-Oct-21 15:28N 41°12' W 008°41'0 0.0
2017-Oct-21 14:58N 41°12' W 008°41'0 0.0
2017-Oct-21 14:28N 41°12' W 008°41'0 0.0
2017-Oct-21 13:28N 41°12' W 008°41'0 0.0
2017-Oct-21 12:58N 41°12' W 008°41'0 0.0
2017-Oct-21 12:28N 41°12' W 008°41'0 0.0
2017-Oct-21 11:58N 41°12' W 008°41'0 0.0
2017-Oct-21 11:28N 41°12' W 008°41'0 0.0
2017-Oct-21 10:58N 41°12' W 008°41'0 0.0
2017-Oct-21 10:28N 41°12' W 008°41'0 0.0
2017-Oct-21 09:58N 41°12' W 008°41'0 0.0
2017-Oct-21 09:28N 41°12' W 008°41'0 0.0
2017-Oct-21 08:58N 41°12' W 008°41'0 0.0
2017-Oct-21 08:28N 41°12' W 008°41'0 0.0
2017-Oct-21 07:58N 41°12' W 008°41'0 0.0
2017-Oct-21 07:28N 41°12' W 008°41'0 0.0
2017-Oct-21 06:58N 41°12' W 008°41'0 0.0
2017-Oct-21 06:25N 41°12' W 008°41'0 0.0
2017-Oct-21 05:58N 41°12' W 008°41'0 0.0
2017-Oct-21 05:28N 41°12' W 008°41'0 0.0
2017-Oct-21 04:58N 41°12' W 008°41'0 0.0
2017-Oct-21 04:28N 41°12' W 008°41'0 0.0
2017-Oct-21 03:58N 41°12' W 008°41'0 0.0
2017-Oct-21 03:28N 41°12' W 008°41'0 0.0
2017-Oct-21 02:58N 41°12' W 008°41'0 0.0
2017-Oct-21 02:28N 41°12' W 008°41'0 0.0
2017-Oct-21 01:58N 41°12' W 008°41'0 0.0
2017-Oct-21 01:28N 41°12' W 008°41'0 0.0
2017-Oct-21 00:58N 41°12' W 008°41'0 0.0
2017-Oct-21 00:28N 41°12' W 008°41'0 0.0
2017-Oct-20 23:58N 41°12' W 008°41'0 0.0
2017-Oct-20 23:28N 41°12' W 008°41'0 0.0
2017-Oct-20 22:58N 41°12' W 008°41'0 0.0
2017-Oct-20 22:25N 41°12' W 008°41'0 0.0
2017-Oct-20 21:55N 41°12' W 008°41'0 0.0
2017-Oct-20 21:28N 41°12' W 008°41'0 0.0
2017-Oct-20 20:52N 41°12' W 008°41'0 0.0
2017-Oct-20 20:28N 41°12' W 008°41'0 0.0
2017-Oct-20 19:58N 41°12' W 008°41'0 0.0
2017-Oct-20 19:28N 41°12' W 008°41'0 0.0
2017-Oct-20 18:58N 41°12' W 008°41'0 0.0
2017-Oct-20 18:25N 41°12' W 008°41'0 0.0
2017-Oct-20 17:58N 41°12' W 008°41'0 0.0
2017-Oct-20 17:25N 41°12' W 008°41'0 0.0
2017-Oct-20 16:58N 41°12' W 008°41'0 0.0
2017-Oct-20 16:28N 41°12' W 008°41'0 0.0
2017-Oct-20 15:58N 41°12' W 008°41'0 0.0
2017-Oct-20 15:28N 41°12' W 008°41'0 0.0
2017-Oct-20 14:58N 41°12' W 008°41'0 0.0
2017-Oct-20 14:28N 41°12' W 008°41'0 0.0
2017-Oct-20 13:25N 41°12' W 008°41'0 0.0
2017-Oct-20 12:58N 41°12' W 008°41'0 0.0
2017-Oct-20 12:28N 41°12' W 008°41'0 0.0
2017-Oct-20 11:58N 41°12' W 008°41'0 0.4
2017-Oct-20 11:31N 41°11' W 008°42'1 1.0
2017-Oct-20 10:59N 41°11' W 008°42'0 0.0
2017-Oct-20 10:29N 41°11' W 008°42'0 0.0
2017-Oct-20 09:59N 41°11' W 008°42'0 0.0
2017-Oct-20 09:29N 41°11' W 008°42'0 0.0
2017-Oct-20 08:59N 41°11' W 008°42'0 0.0
2017-Oct-20 08:29N 41°11' W 008°42'0 0.0
2017-Oct-20 07:59N 41°11' W 008°42'0 0.0
2017-Oct-20 07:29N 41°11' W 008°42'0 0.0
2017-Oct-20 06:59N 41°11' W 008°42'0 0.0
2017-Oct-20 06:29N 41°11' W 008°42'0 0.0
2017-Oct-20 05:59N 41°11' W 008°42'0 0.0
2017-Oct-20 05:29N 41°11' W 008°42'0 0.0
2017-Oct-20 04:59N 41°11' W 008°42'0 0.0
2017-Oct-20 04:29N 41°11' W 008°42'0 0.0
2017-Oct-20 03:59N 41°11' W 008°42'0 0.0
2017-Oct-20 03:29N 41°11' W 008°42'0 0.0
2017-Oct-20 02:59N 41°11' W 008°42'0 0.0
2017-Oct-20 02:29N 41°11' W 008°42'0 0.0
2017-Oct-20 01:59N 41°11' W 008°42'0 0.0
2017-Oct-20 01:29N 41°11' W 008°42'0 0.0
2017-Oct-20 00:59N 41°11' W 008°42'0 0.0
2017-Oct-20 00:29N 41°11' W 008°42'0 0.0
2017-Oct-19 23:59N 41°11' W 008°42'0 0.0
2017-Oct-19 23:29N 41°11' W 008°42'0 0.0
2017-Oct-19 22:59N 41°11' W 008°42'0 0.0
2017-Oct-19 22:29N 41°11' W 008°42'0 0.0
2017-Oct-19 21:59N 41°11' W 008°42'0 0.0
2017-Oct-19 21:29N 41°11' W 008°42'0 0.0
2017-Oct-19 20:59N 41°11' W 008°42'0 0.0
2017-Oct-19 20:29N 41°11' W 008°42'0 0.0
2017-Oct-19 19:56N 41°11' W 008°42'0 0.0
2017-Oct-19 19:29N 41°11' W 008°42'0 0.0
2017-Oct-19 18:59N 41°11' W 008°42'0 0.0
2017-Oct-19 18:29N 41°11' W 008°42'1 2.8
2017-Oct-19 18:00N 41°10' W 008°42'4 8.2
2017-Oct-19 17:30N 41°09' W 008°48'  

Dump ship's entire track history